createdAt,value
2022-09-02T03:47:02.072Z,3.60
2022-09-02T03:49:28.979Z,3.33
2022-09-02T03:51:56.242Z,3.38
2022-09-02T03:54:22.986Z,3.70
2022-09-02T03:56:50.174Z,3.15
2022-09-02T03:59:17.213Z,3.60
2022-09-02T04:01:44.850Z,3.60
2022-09-02T04:04:11.931Z,3.30
2022-09-02T04:06:39.071Z,3.80
2022-09-02T04:09:06.395Z,3.65
2022-09-02T04:11:33.493Z,3.05
2022-09-02T04:14:00.336Z,3.50
2022-09-02T04:16:28.743Z,3.67
2022-09-02T04:18:57.883Z,3.45
2022-09-02T04:21:25.779Z,3.78
2022-09-02T04:23:52.622Z,4.10
2022-09-02T04:26:20.732Z,3.78
2022-09-02T04:28:49.515Z,3.08
2022-09-02T04:31:19.485Z,3.88
2022-09-02T04:33:46.972Z,3.95
2022-09-02T04:36:17.013Z,4.38
2022-09-02T04:38:44.483Z,3.78
2022-09-02T04:41:14.715Z,3.60
2022-09-02T04:43:42.153Z,4.30
2022-09-02T04:46:12.358Z,3.67
2022-09-02T04:48:40.373Z,3.60
2022-09-02T04:51:16.577Z,4.03
2022-09-02T04:53:44.515Z,4.40
2022-09-02T04:56:14.860Z,4.65
2022-09-02T04:58:44.356Z,4.65
2022-09-02T05:01:18.210Z,5.13
2022-09-02T05:03:45.730Z,4.40
2022-09-02T05:06:15.431Z,4.20
2022-09-02T05:08:43.415Z,4.32
2022-09-02T05:11:13.503Z,4.57
2022-09-02T05:13:41.188Z,4.53
2022-09-02T05:16:07.993Z,3.95
2022-09-02T05:18:35.236Z,4.70
2022-09-02T05:21:06.467Z,4.70
2022-09-02T05:23:34.728Z,4.20
2022-09-02T05:26:05.923Z,4.10
2022-09-02T05:28:33.441Z,4.10
2022-09-02T05:31:10.851Z,3.97
2022-09-02T05:33:40.830Z,3.80
2022-09-02T05:36:09.872Z,3.63
2022-09-02T05:38:36.608Z,3.75
2022-09-02T05:41:08.435Z,3.45
2022-09-02T05:43:38.963Z,3.50
2022-09-02T05:46:11.771Z,3.25
2022-09-02T05:48:58.183Z,3.88
2022-09-02T05:51:25.954Z,3.67
2022-09-02T05:53:54.126Z,2.83
2022-09-02T05:56:22.305Z,3.70
2022-09-02T05:58:50.100Z,3.47
2022-09-02T06:01:18.591Z,3.42
2022-09-02T06:03:46.012Z,3.55
2022-09-02T06:06:13.927Z,3.42
2022-09-02T06:08:41.370Z,3.25
2022-09-02T06:11:10.547Z,3.40
2022-09-02T06:13:40.998Z,3.33
2022-09-02T06:16:12.284Z,3.17
2022-09-02T06:18:39.369Z,3.28
2022-09-02T06:21:06.932Z,3.90
2022-09-02T06:23:39.092Z,3.17
2022-09-02T06:26:08.048Z,3.25
2022-09-02T06:28:35.701Z,3.65
2022-09-02T06:31:11.285Z,3.45
2022-09-02T06:33:38.165Z,3.15
2022-09-02T06:36:11.330Z,2.83
2022-09-02T06:38:46.057Z,3.92
2022-09-02T06:41:19.490Z,3.20
2022-09-02T06:43:46.240Z,2.90
2022-09-02T06:46:28.327Z,2.80
2022-09-02T06:48:55.239Z,3.50
2022-09-02T06:51:31.828Z,3.47
2022-09-02T06:54:00.635Z,3.30
2022-09-02T06:56:28.398Z,3.22
2022-09-02T06:58:55.829Z,3.03
2022-09-02T07:01:26.097Z,3.17
2022-09-02T07:04:11.965Z,2.90
2022-09-02T07:06:44.530Z,3.60
2022-09-02T07:09:14.383Z,3.53
2022-09-02T07:11:41.180Z,3.47
2022-09-02T07:14:08.557Z,3.25
2022-09-02T07:16:42.464Z,3.35
2022-09-02T07:19:13.343Z,3.50
2022-09-02T07:21:42.069Z,3.47
2022-09-02T07:24:11.183Z,3.10
2022-09-02T07:26:38.133Z,3.17
2022-09-02T07:29:08.727Z,3.20
2022-09-02T07:31:41.320Z,3.05
2022-09-02T07:34:09.936Z,3.22
2022-09-02T07:36:37.031Z,3.25
2022-09-02T07:39:06.425Z,3.13
2022-09-02T07:41:33.329Z,3.03
2022-09-02T07:44:00.552Z,2.92
2022-09-02T07:46:29.963Z,2.88
2022-09-02T07:48:57.152Z,2.80
2022-09-02T07:51:24.338Z,3.20
2022-09-02T07:53:57.985Z,3.25
2022-09-02T07:56:24.818Z,2.72
2022-09-02T07:58:51.685Z,3.08
2022-09-02T08:01:23.450Z,3.15
2022-09-02T08:03:51.144Z,2.90
2022-09-02T08:06:33.612Z,2.85
2022-09-02T08:09:01.817Z,3.00
2022-09-02T08:11:28.903Z,2.75
2022-09-02T08:13:55.690Z,2.53
2022-09-02T08:16:22.664Z,2.55
2022-09-02T08:18:49.470Z,3.10
2022-09-02T08:21:16.206Z,2.20
2022-09-02T08:23:43.377Z,2.50
2022-09-02T08:26:11.191Z,2.33
2022-09-02T08:28:38.480Z,2.60
2022-09-02T08:31:07.182Z,2.58
2022-09-02T08:33:34.414Z,2.53
2022-09-02T08:36:11.067Z,2.33
2022-09-02T08:38:38.485Z,1.92
2022-09-02T08:41:24.786Z,2.08
2022-09-02T08:43:58.579Z,2.30
2022-09-02T08:46:27.222Z,1.92
2022-09-02T08:49:04.151Z,2.40
2022-09-02T08:51:37.680Z,1.73
2022-09-02T08:54:28.297Z,1.70
2022-09-02T08:56:56.279Z,2.08
2022-09-02T08:59:26.541Z,1.70
2022-09-02T09:02:17.753Z,1.80
2022-09-02T09:05:16.808Z,1.73
2022-09-02T09:08:14.888Z,1.83
2022-09-02T09:10:44.636Z,2.10
2022-09-02T09:13:47.858Z,2.00
2022-09-02T09:19:00.237Z,2.30
2022-09-02T09:21:27.156Z,2.45
2022-09-02T09:23:55.404Z,2.38
2022-09-02T09:26:28.879Z,2.15
2022-09-02T09:28:56.497Z,1.92
2022-09-02T09:31:31.130Z,1.80
2022-09-02T09:34:05.909Z,2.00
2022-09-02T09:36:41.582Z,1.85
2022-09-02T09:39:30.704Z,1.58
2022-09-02T09:42:03.195Z,1.65
2022-09-02T09:44:45.869Z,1.58
2022-09-02T09:47:26.310Z,1.98
2022-09-02T09:50:14.558Z,2.00
2022-09-02T09:52:41.365Z,2.00
2022-09-02T09:55:25.226Z,1.52
2022-09-02T09:57:54.761Z,2.00
2022-09-02T10:00:34.712Z,1.90
2022-09-02T10:03:04.669Z,1.58
2022-09-02T10:05:35.529Z,1.88
2022-09-02T10:08:04.268Z,2.03
2022-09-02T10:10:36.948Z,1.73
2022-09-02T10:13:27.048Z,1.85
2022-09-02T10:16:07.849Z,1.80
2022-09-02T10:18:54.771Z,2.10
2022-09-02T10:21:45.185Z,2.15
2022-09-02T10:24:31.246Z,2.10
2022-09-02T10:27:00.389Z,2.50
2022-09-02T10:29:59.993Z,2.75
2022-09-02T10:32:46.610Z,3.45
2022-09-02T10:35:45.238Z,2.35
2022-09-02T10:38:33.490Z,2.50
2022-09-02T10:41:37.468Z,2.42
2022-09-02T10:44:35.116Z,1.95
2022-09-02T10:47:29.373Z,2.10
2022-09-02T10:50:03.327Z,2.38
2022-09-02T10:52:45.326Z,1.98
2022-09-02T10:55:43.014Z,2.58
2022-09-02T10:58:39.309Z,2.33
2022-09-02T11:01:10.592Z,2.10
2022-09-02T11:03:56.295Z,1.95
2022-09-02T11:06:51.777Z,2.20
2022-09-02T11:09:43.515Z,2.05
2022-09-02T11:12:16.267Z,2.15
2022-09-02T11:15:09.853Z,2.25
2022-09-02T11:17:43.586Z,2.45
2022-09-02T11:20:30.761Z,2.00
2022-09-02T11:23:08.453Z,2.00
2022-09-02T11:25:45.102Z,2.30
2022-09-02T11:28:49.019Z,1.77
2022-09-02T11:31:20.031Z,2.30
2022-09-02T11:36:38.662Z,1.85
2022-09-02T11:39:36.641Z,2.28
2022-09-02T11:42:47.190Z,2.30
2022-09-02T11:45:36.165Z,2.30
2022-09-02T11:48:29.478Z,1.70
2022-09-02T11:51:02.113Z,1.95
2022-09-02T11:53:38.104Z,1.85
2022-09-02T11:56:15.898Z,2.35
2022-09-02T11:58:45.478Z,2.10
2022-09-02T12:01:47.467Z,1.77
2022-09-02T12:07:08.725Z,2.10
2022-09-02T12:09:50.710Z,2.10
2022-09-02T12:12:36.286Z,1.80
2022-09-02T12:15:16.917Z,2.00
2022-09-02T12:17:50.040Z,2.03
2022-09-02T12:20:39.203Z,2.13
2022-09-02T12:23:09.004Z,2.00
2022-09-02T12:25:49.585Z,1.90
2022-09-02T12:28:26.522Z,2.20
2022-09-02T12:30:56.522Z,2.30
2022-09-02T12:33:34.905Z,2.10
2022-09-02T12:36:04.951Z,2.00
2022-09-02T12:38:34.901Z,1.67
2022-09-02T12:41:01.645Z,1.70
2022-09-02T12:43:37.425Z,2.30
2022-09-02T12:46:21.416Z,2.42
2022-09-02T12:49:11.229Z,2.35
2022-09-02T12:51:57.080Z,2.25
2022-09-02T12:54:48.889Z,1.90
2022-09-02T12:57:17.884Z,2.00
2022-09-02T12:59:46.547Z,1.88
2022-09-02T13:02:28.209Z,1.88
2022-09-02T13:05:15.985Z,2.15
2022-09-02T13:07:54.406Z,1.63
2022-09-02T13:10:37.705Z,2.10
2022-09-02T13:13:37.988Z,2.05
2022-09-02T13:16:18.627Z,1.92
2022-09-02T13:19:11.627Z,1.90
2022-09-02T13:21:53.153Z,2.08
2022-09-02T13:24:31.084Z,2.00
2022-09-02T13:26:58.806Z,1.95
2022-09-02T13:30:03.250Z,1.92
2022-09-02T13:32:31.383Z,1.80
2022-09-02T13:35:03.621Z,1.80
2022-09-02T13:37:32.196Z,1.90
2022-09-02T13:40:00.595Z,2.28
2022-09-02T13:42:32.810Z,2.17
2022-09-02T13:45:13.422Z,1.70
2022-09-02T13:47:48.302Z,2.28
2022-09-02T13:50:18.247Z,1.90
2022-09-02T13:53:45.095Z,1.70
2022-09-02T13:55:35.318Z,2.10
2022-09-02T13:58:05.321Z,2.30
2022-09-02T14:00:39.346Z,2.45
2022-09-02T14:03:10.406Z,2.28
2022-09-02T14:05:41.894Z,2.00
2022-09-02T14:08:15.625Z,2.30
2022-09-02T14:10:43.996Z,2.17
2022-09-02T14:13:12.174Z,2.20
2022-09-02T14:15:39.543Z,2.42
2022-09-02T14:18:20.755Z,2.25
2022-09-02T14:21:18.105Z,2.63
2022-09-02T14:23:52.106Z,2.33
2022-09-02T14:26:30.869Z,2.40
2022-09-02T14:28:57.614Z,2.05
2022-09-02T14:31:30.507Z,2.30
2022-09-02T14:36:24.526Z,2.10
2022-09-02T14:38:57.394Z,2.00
2022-09-02T14:43:56.829Z,2.25
2022-09-02T14:46:28.369Z,2.13
2022-09-02T14:49:11.724Z,2.25
2022-09-02T14:51:39.809Z,1.90
2022-09-02T14:54:07.464Z,2.25
2022-09-02T14:56:44.413Z,2.20
2022-09-02T14:59:11.182Z,2.38
2022-09-02T15:01:47.113Z,2.20
2022-09-02T15:04:15.401Z,2.20
2022-09-02T15:06:43.291Z,2.15
2022-09-02T15:09:10.798Z,2.30
2022-09-02T15:11:39.614Z,2.20
2022-09-02T15:14:06.930Z,2.15
2022-09-02T15:16:33.695Z,2.40
2022-09-02T15:19:00.447Z,2.28
2022-09-02T15:21:27.269Z,2.40
2022-09-02T15:23:54.374Z,2.20
2022-09-02T15:26:21.150Z,2.60
2022-09-02T15:28:47.953Z,2.25
2022-09-02T15:31:15.561Z,2.38
2022-09-02T15:33:42.361Z,2.33
2022-09-02T15:36:12.052Z,2.45
2022-09-02T15:38:41.124Z,2.40
2022-09-02T15:41:16.373Z,2.45
2022-09-02T15:43:44.049Z,2.60
2022-09-02T15:46:40.271Z,2.80
2022-09-02T15:49:09.646Z,3.63
2022-09-02T15:51:39.056Z,2.58
2022-09-02T15:54:08.744Z,2.70
2022-09-02T15:56:37.981Z,2.80
2022-09-02T15:59:11.397Z,2.42
2022-09-02T16:01:40.904Z,2.67
2022-09-02T16:04:07.903Z,2.60
2022-09-02T16:06:37.814Z,2.70
2022-09-02T16:09:04.976Z,2.78
2022-09-02T16:11:31.990Z,3.10
2022-09-02T16:13:58.792Z,2.92
2022-09-02T16:16:25.611Z,3.00
2022-09-02T16:18:54.026Z,3.03
2022-09-02T16:21:22.058Z,3.13
2022-09-02T16:23:50.361Z,2.92
2022-09-02T16:26:27.498Z,3.20
2022-09-02T16:28:56.673Z,3.03
2022-09-02T16:31:26.925Z,3.00
2022-09-02T16:33:59.865Z,2.70
2022-09-02T16:36:29.171Z,3.13
2022-09-02T16:39:01.110Z,3.05
2022-09-02T16:41:36.456Z,3.10
2022-09-02T16:44:06.209Z,2.92
2022-09-02T16:46:34.161Z,3.40
2022-09-02T16:49:01.125Z,3.78
2022-09-02T16:51:30.068Z,3.17
2022-09-02T16:53:59.374Z,3.22
2022-09-02T16:56:27.164Z,3.15
2022-09-02T16:58:54.749Z,2.90
2022-09-02T17:01:23.313Z,3.00
2022-09-02T17:03:50.638Z,3.20
2022-09-02T17:06:17.815Z,3.15
2022-09-02T17:08:44.842Z,2.72
2022-09-02T17:11:32.802Z,3.10
2022-09-02T17:14:02.715Z,2.97
2022-09-02T17:16:35.074Z,3.17
2022-09-02T17:19:04.930Z,3.63
2022-09-02T17:21:36.253Z,3.17
2022-09-02T17:24:05.649Z,3.47
2022-09-02T17:26:34.764Z,3.25
2022-09-02T17:29:07.350Z,3.00
2022-09-02T17:31:34.370Z,3.00
2022-09-02T17:34:04.015Z,3.20
2022-09-02T17:36:32.222Z,2.88
2022-09-02T17:39:07.778Z,3.30
2022-09-02T17:41:52.977Z,3.35
2022-09-02T17:44:20.402Z,3.50
2022-09-02T17:46:47.324Z,3.25
2022-09-02T17:49:17.124Z,3.50
2022-09-02T17:51:45.282Z,3.50
2022-09-02T17:54:13.236Z,3.47
2022-09-02T17:56:47.510Z,4.25
2022-09-02T17:59:27.864Z,3.70
2022-09-02T18:02:03.946Z,3.72
2022-09-02T18:04:38.025Z,3.45
2022-09-02T18:07:34.749Z,4.00
2022-09-02T18:10:01.574Z,3.97
2022-09-02T18:12:28.378Z,4.32
2022-09-02T18:14:59.205Z,4.20
2022-09-02T18:17:37.294Z,4.00
2022-09-02T18:20:16.773Z,3.63
2022-09-02T18:23:09.870Z,3.70
2022-09-02T18:26:21.990Z,3.90
2022-09-02T18:29:18.375Z,3.97
2022-09-02T18:32:03.916Z,3.58
2022-09-02T18:35:08.476Z,3.47
2022-09-02T18:37:54.818Z,3.88
2022-09-02T18:40:33.815Z,3.20
2022-09-02T18:43:12.869Z,3.83
2022-09-02T18:45:50.086Z,3.78
2022-09-02T18:48:33.410Z,4.05
2022-09-02T18:51:07.958Z,3.78
2022-09-02T18:53:40.137Z,4.20
2022-09-02T18:56:09.170Z,4.35
2022-09-02T18:58:56.991Z,4.25
2022-09-02T19:01:35.413Z,4.38
2022-09-02T19:04:02.441Z,4.13
2022-09-02T19:06:34.397Z,4.50
2022-09-02T19:09:12.051Z,4.03
2022-09-02T19:11:39.674Z,4.22
2022-09-02T19:14:26.605Z,4.63
2022-09-02T19:16:58.252Z,4.18
2022-09-02T19:19:27.499Z,4.43
2022-09-02T19:22:00.474Z,3.53
2022-09-02T19:24:31.503Z,3.70
2022-09-02T19:27:12.462Z,4.07
2022-09-02T19:29:43.437Z,3.83
2022-09-02T19:32:12.410Z,4.30
2022-09-02T19:34:42.153Z,4.45
2022-09-02T19:37:11.684Z,4.60
2022-09-02T19:39:38.467Z,3.38
2022-09-02T19:42:06.560Z,4.20
2022-09-02T19:44:33.309Z,4.45
2022-09-02T19:49:46.806Z,3.90
2022-09-02T19:52:14.059Z,4.00
2022-09-02T19:54:41.713Z,4.63
2022-09-02T19:57:08.467Z,4.15
2022-09-02T19:59:35.157Z,4.78
2022-09-02T20:02:04.449Z,4.60
2022-09-02T20:04:31.638Z,4.35
2022-09-02T20:06:58.876Z,4.60
2022-09-02T20:09:25.742Z,4.47
2022-09-02T20:11:56.430Z,4.40
2022-09-02T20:14:23.378Z,4.72
2022-09-02T20:17:00.536Z,4.63
2022-09-02T20:19:27.972Z,4.85
2022-09-02T20:21:54.661Z,4.28
2022-09-02T20:24:25.616Z,4.38
2022-09-02T20:27:40.482Z,4.53
2022-09-02T20:30:19.382Z,4.97
2022-09-02T20:32:54.833Z,4.30
2022-09-02T20:35:24.593Z,4.75
2022-09-02T20:38:14.573Z,4.38
2022-09-02T20:40:46.298Z,3.92
2022-09-02T20:43:25.291Z,4.90
2022-09-02T20:46:21.135Z,4.55
2022-09-02T20:49:05.349Z,4.45
2022-09-02T20:52:08.086Z,4.15
2022-09-02T20:54:39.548Z,4.25
2022-09-02T20:57:35.437Z,4.40
2022-09-02T21:00:12.401Z,5.10
2022-09-02T21:03:11.358Z,5.35
2022-09-02T21:05:43.822Z,5.47
2022-09-02T21:08:24.681Z,5.20
2022-09-02T21:10:58.980Z,5.40
2022-09-02T21:13:44.042Z,5.00
2022-09-02T21:16:21.950Z,5.45
2022-09-02T21:19:19.309Z,4.65
2022-09-02T21:22:03.238Z,4.47
2022-09-02T21:24:37.053Z,4.07
2022-09-02T21:27:08.908Z,4.47
2022-09-02T21:29:50.829Z,4.13
2022-09-02T21:32:40.238Z,4.20
2022-09-02T21:35:40.717Z,4.18
2022-09-02T21:38:53.606Z,4.00
2022-09-02T21:41:35.923Z,4.28
2022-09-02T21:44:22.955Z,4.35
2022-09-02T21:47:16.902Z,4.85
2022-09-02T21:50:08.185Z,4.28
2022-09-02T21:52:41.139Z,5.18
2022-09-02T21:55:38.217Z,4.35
2022-09-02T21:58:47.203Z,4.85
2022-09-02T22:01:28.855Z,4.20
2022-09-02T22:04:05.729Z,4.70
2022-09-02T22:06:43.298Z,4.45
2022-09-02T22:09:28.422Z,5.07
2022-09-02T22:12:07.313Z,4.10
2022-09-02T22:14:48.270Z,4.68
2022-09-02T22:17:33.894Z,4.70
2022-09-02T22:20:02.798Z,4.68
2022-09-02T22:22:45.401Z,4.90
2022-09-02T22:25:16.401Z,4.22
2022-09-02T22:28:12.355Z,4.60
2022-09-02T22:30:44.042Z,4.90
2022-09-02T22:33:14.752Z,4.25
2022-09-02T22:35:51.507Z,4.82
2022-09-02T22:38:30.809Z,4.78
2022-09-02T22:41:19.381Z,4.20
2022-09-02T22:43:57.937Z,4.00
2022-09-02T22:47:06.285Z,3.78
2022-09-02T22:49:59.969Z,3.60
2022-09-02T22:52:45.888Z,4.32
2022-09-02T22:55:35.350Z,3.90
2022-09-02T22:58:53.483Z,4.32
2022-09-02T23:01:51.715Z,4.75
2022-09-02T23:04:41.146Z,5.03
2022-09-02T23:07:07.863Z,4.15
2022-09-02T23:09:38.762Z,4.22
2022-09-02T23:12:14.502Z,3.75
2022-09-02T23:14:50.732Z,3.60
2022-09-02T23:17:23.639Z,3.55
2022-09-02T23:20:01.674Z,4.28
2022-09-02T23:23:03.425Z,3.75
2022-09-02T23:25:42.351Z,3.80
2022-09-02T23:28:11.827Z,3.70
